Time;durP1;ratioP1;P1;durP2;ratioP2;P2;SDS_P1;SDS_P2;PMS_P1;PMS_P2;Temp;Humidity;BMP_temperature;BMP_pressure;BME280_temperature;BME280_humidity;BME280_pressure;Samples;Min_cycle;Max_cycle;Signal;HPM_P1;HPM_P2
2021/11/11 00:00:03;;;;;;;49.25;31.77;;;;;;;6.35;80.78;102015.92;1669106;85;21102;-84
2021/11/11 00:02:31;;;;;;;49.53;32.38;;;;;;;6.39;80.83;102011.78;1642103;87;21532;-86
2021/11/11 00:04:58;;;;;;;48.70;31.90;;;;;;;6.41;80.85;102016.70;1669636;85;21692;-86
2021/11/11 00:07:25;;;;;;;46.83;30.65;;;;;;;6.45;80.87;102019.11;1642492;87;21101;-86
2021/11/11 00:09:52;;;;;;;41.90;30.20;;;;;;;6.48;80.81;102018.89;1669512;84;21726;-86
2021/11/11 00:12:19;;;;;;;47.10;31.87;;;;;;;6.50;80.81;102012.45;1642114;87;21086;-86
2021/11/11 00:14:46;;;;;;;44.33;30.02;;;;;;;6.55;80.84;102007.08;1669784;85;21096;-86
2021/11/11 00:17:13;;;;;;;44.20;30.57;;;;;;;6.58;80.79;101999.02;1642320;87;21090;-86
2021/11/11 00:19:40;;;;;;;45.60;30.40;;;;;;;6.61;80.77;101995.30;1642597;85;21090;-85
2021/11/11 00:22:06;;;;;;;46.88;30.95;;;;;;;6.67;80.70;101998.69;1642426;87;22370;-85
2021/11/11 00:24:33;;;;;;;43.20;30.35;;;;;;;6.72;80.66;102003.80;1669529;85;21588;-85
2021/11/11 00:27:02;;;;;;;43.42;28.73;;;;;;;6.78;80.69;102007.20;1642201;87;21585;-85
2021/11/11 00:29:31;;;;;;;35.33;26.97;;;;;;;6.85;80.63;102005.45;1669202;85;21036;-85
2021/11/11 00:31:58;;;;;;;37.95;25.17;;;;;;;6.94;80.53;102009.00;1642353;87;21086;-85
2021/11/11 00:34:24;;;;;;;43.73;28.23;;;;;;;7.01;80.48;102012.08;1669651;85;21780;-85
2021/11/11 00:36:51;;;;;;;41.75;28.07;;;;;;;7.10;80.48;102015.66;1642292;87;21015;-85
2021/11/11 00:39:18;;;;;;;41.75;27.50;;;;;;;7.17;80.27;102017.84;1669666;85;21078;-85
2021/11/11 00:41:44;;;;;;;38.55;26.70;;;;;;;7.22;80.20;102015.89;1642546;87;21081;-85
2021/11/11 00:44:11;;;;;;;35.92;26.55;;;;;;;7.26;80.03;102000.43;1669887;85;21094;-85
2021/11/11 00:46:39;;;;;;;37.60;26.42;;;;;;;7.27;79.98;101996.12;1642145;87;21990;-85
2021/11/11 00:49:09;;;;;;;42.23;27.95;;;;;;;7.31;80.01;101998.98;1669465;85;21541;-85
2021/11/11 00:51:38;;;;;;;40.95;26.70;;;;;;;7.36;80.02;102005.83;1615831;87;21572;-85
2021/11/11 00:54:05;;;;;;;39.63;27.02;;;;;;;7.40;79.87;102005.18;1669447;85;21113;-85
2021/11/11 00:56:33;;;;;;;33.60;25.60;;;;;;;7.42;79.82;102002.24;1642270;87;21090;-85
2021/11/11 00:59:00;;;;;;;41.20;26.37;;;;;;;7.44;79.73;101992.75;1669415;85;21778;-84
2021/11/11 01:01:29;;;;;;;38.23;25.57;;;;;;;7.47;79.68;101986.77;1642148;87;21065;-85
2021/11/11 01:03:57;;;;;;;37.25;26.50;;;;;;;7.48;79.54;101992.11;1669455;85;21076;-85
2021/11/11 01:06:26;;;;;;;35.40;24.80;;;;;;;7.50;79.60;101996.13;1642245;87;21117;-86
2021/11/11 01:08:53;;;;;;;33.60;24.57;;;;;;;7.50;79.32;101989.58;1669473;85;21089;-86
2021/11/11 01:11:20;;;;;;;32.48;24.07;;;;;;;7.54;79.43;101977.14;1642143;86;21822;-84
2021/11/11 01:13:47;;;;;;;35.35;25.88;;;;;;;7.57;79.38;101971.67;1669395;85;21133;-85
2021/11/11 01:16:14;;;;;;;35.50;25.15;;;;;;;7.60;79.21;101976.17;1642386;87;21121;-85
2021/11/11 01:18:41;;;;;;;36.73;24.75;;;;;;;7.59;79.12;101974.38;1669684;85;21360;-85
2021/11/11 01:21:08;;;;;;;34.20;24.35;;;;;;;7.59;79.10;101958.25;1642360;87;21113;-85
2021/11/11 01:23:34;;;;;;;35.28;23.87;;;;;;;7.61;78.98;101957.03;1669861;85;22580;-84
2021/11/11 01:26:04;;;;;;;33.35;23.47;;;;;;;7.65;78.92;101942.38;1642415;87;21054;-87
2021/11/11 01:28:31;;;;;;;37.70;24.63;;;;;;;7.68;78.84;101950.43;1619454;85;21101;-85
2021/11/11 01:30:58;;;;;;;29.65;22.98;;;;;;;7.69;78.63;101960.08;1642155;87;21050;-84
2021/11/11 01:33:28;;;;;;;31.45;22.93;;;;;;;7.72;78.75;101951.09;1669371;85;21591;-85
2021/11/11 01:35:54;;;;;;;29.02;22.00;;;;;;;7.74;78.75;101956.89;1669164;85;21831;-85
2021/11/11 01:38:20;;;;;;;34.63;23.60;;;;;;;7.78;78.62;101963.22;1642049;87;21090;-85
2021/11/11 01:40:47;;;;;;;32.25;22.95;;;;;;;7.80;78.69;101961.58;1669200;85;21077;-85
2021/11/11 01:43:17;;;;;;;37.23;24.80;;;;;;;7.81;78.58;101951.60;1642020;87;21543;-85
2021/11/11 01:45:44;;;;;;;37.58;26.45;;;;;;;7.82;78.65;101946.83;1669011;85;21050;-85
2021/11/11 01:48:14;;;;;;;35.88;24.45;;;;;;;7.83;78.57;101945.11;1641941;87;22553;-85
2021/11/11 01:50:41;;;;;;;34.63;24.35;;;;;;;7.81;78.47;101952.91;1669127;85;21082;-85
2021/11/11 01:53:11;;;;;;;36.13;26.50;;;;;;;7.76;78.34;101957.88;1615731;87;21157;-85
2021/11/11 01:55:40;;;;;;;40.25;25.37;;;;;;;7.69;78.19;101949.59;1669178;85;21055;-85
2021/11/11 01:58:09;;;;;;;43.80;27.93;;;;;;;7.62;78.19;101957.54;1641609;87;21097;-85
2021/11/11 02:00:49;;;;;;;41.35;27.45;;;;;;;7.58;78.25;101954.22;1669029;85;21792;-86
2021/11/11 02:03:16;;;;;;;41.95;27.87;;;;;;;7.50;78.13;101955.52;1663228;86;21701;-85
2021/11/11 02:05:43;;;;;;;34.88;24.92;;;;;;;7.41;78.26;101949.34;1665251;85;21088;-85
2021/11/11 02:08:12;;;;;;;41.70;27.58;;;;;;;7.37;78.34;101951.30;1665295;85;21578;-85
2021/11/11 02:10:42;;;;;;;42.73;28.10;;;;;;;7.37;78.43;101964.39;1665096;85;21166;-85
2021/11/11 02:13:08;;;;;;;41.73;27.52;;;;;;;7.35;78.47;101969.53;1664806;86;22754;-85
2021/11/11 02:15:38;;;;;;;44.10;28.57;;;;;;;7.36;78.54;101966.12;1665624;85;21454;-85
2021/11/11 02:18:08;;;;;;;40.70;27.02;;;;;;;7.37;78.62;101965.28;1665099;85;21111;-85
2021/11/11 02:20:38;;;;;;;47.20;30.27;;;;;;;7.37;78.64;101950.88;1665233;85;21099;-85
2021/11/11 02:23:11;;;;;;;51.80;31.77;;;;;;;7.40;78.61;101946.24;1665275;85;21108;-84
2021/11/11 02:25:38;;;;;;;47.27;31.60;;;;;;;7.38;78.62;101942.64;1665238;85;21791;-85
2021/11/11 02:28:08;;;;;;;46.30;30.05;;;;;;;7.37;78.62;101948.26;1665240;85;21135;-85
2021/11/11 02:30:35;;;;;;;49.08;31.87;;;;;;;7.32;78.45;101943.57;1665437;86;21096;-85
2021/11/11 02:33:13;;;;;;;46.58;30.52;;;;;;;7.25;78.42;101945.37;1665420;85;21435;-85
2021/11/11 02:35:39;;;;;;;51.00;31.23;;;;;;;7.20;78.48;101942.47;1664449;86;21033;-84
2021/11/11 02:38:07;;;;;;;48.90;31.68;;;;;;;7.16;78.49;101944.42;1665318;86;21793;-85
2021/11/11 02:40:34;;;;;;;55.60;32.75;;;;;;;7.10;78.48;101948.89;1665184;86;21150;-85
2021/11/11 02:43:03;;;;;;;50.90;32.48;;;;;;;7.04;78.52;101942.38;1665229;86;21605;-85
2021/11/11 02:45:33;;;;;;;50.28;33.83;;;;;;;6.99;78.53;101935.59;1665184;86;21445;-85
2021/11/11 02:48:00;;;;;;;55.03;33.70;;;;;;;6.90;78.45;101927.19;1664838;86;21060;-85
2021/11/11 02:50:28;;;;;;;55.00;34.78;;;;;;;6.80;78.36;101933.60;1665293;85;21838;-84
2021/11/11 02:52:56;;;;;;;53.23;32.63;;;;;;;6.70;78.39;101945.25;1665105;85;21622;-85
2021/11/11 02:55:27;;;;;;;52.53;35.45;;;;;;;6.59;78.44;101944.59;1665212;86;21140;-84
2021/11/11 02:57:51;;;;;;;53.40;33.83;;;;;;;6.50;78.53;101937.91;1664529;86;21084;-85
2021/11/11 03:00:22;;;;;;;50.92;34.13;;;;;;;6.42;78.57;101936.14;1665183;85;21132;-86
2021/11/11 03:02:52;;;;;;;58.08;33.83;;;;;;;6.31;78.54;101932.86;1665209;85;22243;-86
2021/11/11 03:05:24;;;;;;;53.55;35.10;;;;;;;6.21;78.61;101922.63;1665111;86;21095;-85
2021/11/11 03:07:51;;;;;;;54.15;33.35;;;;;;;6.12;78.73;101920.75;1665376;85;21088;-86
2021/11/11 03:10:21;;;;;;;55.52;34.00;;;;;;;5.97;78.85;101905.95;1665569;85;21603;-86
2021/11/11 03:12:49;;;;;;;54.83;34.33;;;;;;;5.97;78.88;101920.32;1665529;85;21123;-86
2021/11/11 03:15:16;;;;;;;57.27;34.85;;;;;;;5.89;78.98;101912.35;1665531;85;21814;-85
2021/11/11 03:17:47;;;;;;;51.90;34.35;;;;;;;5.84;79.10;101920.33;1665706;86;21099;-85
2021/11/11 03:20:14;;;;;;;55.33;33.38;;;;;;;5.76;79.20;101927.69;1665630;86;21561;-85
2021/11/11 03:22:41;;;;;;;56.15;33.83;;;;;;;5.72;79.30;101921.74;1665662;85;21518;-85
2021/11/11 03:25:08;;;;;;;53.23;33.38;;;;;;;5.65;79.33;101925.69;1665682;86;21072;-84
2021/11/11 03:27:36;;;;;;;52.15;33.13;;;;;;;5.61;79.41;101923.70;1639943;86;21741;-84
2021/11/11 03:30:23;;;;;;;54.65;32.20;;;;;;;5.56;79.39;101926.41;1712521;83;21126;-81
2021/11/11 03:32:51;;;;;;;52.03;34.10;;;;;;;5.49;79.52;101913.75;1712714;83;21142;-81
2021/11/11 03:35:17;;;;;;;52.03;33.28;;;;;;;5.45;79.65;101907.43;1712608;83;21086;-81
2021/11/11 03:37:44;;;;;;;51.02;31.30;;;;;;;5.40;79.67;101911.86;1712756;83;21101;-81
2021/11/11 03:40:14;;;;;;;46.85;31.57;;;;;;;5.32;79.64;101905.25;1712668;83;21755;-81
2021/11/11 03:42:41;;;;;;;52.53;31.70;;;;;;;5.28;79.67;101904.55;1712812;83;21078;-81
2021/11/11 03:45:08;;;;;;;53.73;31.00;;;;;;;5.23;79.70;101910.77;1712837;83;21122;-81
2021/11/11 03:47:35;;;;;;;50.30;31.77;;;;;;;5.21;79.80;101909.77;1712812;83;21098;-80
2021/11/11 03:50:02;;;;;;;51.25;33.28;;;;;;;5.17;79.81;101910.38;1712796;82;21085;-81
2021/11/11 03:52:28;;;;;;;50.43;31.55;;;;;;;5.13;79.87;101910.98;1712824;83;22114;-81
2021/11/11 03:54:55;;;;;;;46.45;32.15;;;;;;;5.11;79.99;101908.67;1712639;83;21078;-81
2021/11/11 03:57:22;;;;;;;45.73;31.68;;;;;;;5.11;80.17;101908.67;1712787;83;21035;-81
2021/11/11 03:59:48;;;;;;;47.93;31.73;;;;;;;5.17;80.48;101912.58;1684243;83;21550;-81
2021/11/11 04:02:15;;;;;;;48.48;30.80;;;;;;;5.21;80.35;101904.13;1712835;83;21533;-81
2021/11/11 04:04:42;;;;;;;44.50;28.75;;;;;;;5.20;80.26;101902.34;1712891;83;21724;-81
2021/11/11 04:07:09;;;;;;;44.88;28.85;;;;;;;5.21;80.21;101898.02;1712758;83;21074;-81
2021/11/11 04:09:35;;;;;;;45.15;30.00;;;;;;;5.24;80.30;101891.70;1713051;83;21050;-82
2021/11/11 04:12:02;;;;;;;47.13;30.45;;;;;;;5.26;80.26;101896.62;1712891;83;21137;-82
2021/11/11 04:14:31;;;;;;;50.63;29.00;;;;;;;5.29;80.30;101896.80;1713005;83;21106;-81
2021/11/11 04:16:58;;;;;;;51.40;30.77;;;;;;;5.32;80.23;101892.20;1712873;83;21883;-81
2021/11/11 04:19:24;;;;;;;41.77;28.67;;;;;;;5.35;80.25;101909.34;1713164;83;21106;-81
2021/11/11 04:21:51;;;;;;;42.58;29.92;;;;;;;5.35;80.23;101905.42;1713116;83;21093;-82
2021/11/11 04:24:18;;;;;;;44.93;29.55;;;;;;;5.36;80.28;101902.92;1713146;83;21565;-82
2021/11/11 04:27:04;;;;;;;39.83;28.17;;;;;;;5.37;80.27;101896.02;1713086;83;21114;-82
2021/11/11 04:29:30;;;;;;;43.60;27.77;;;;;;;5.38;80.35;101896.50;1715148;82;22079;-81
2021/11/11 04:31:58;;;;;;;44.33;28.55;;;;;;;5.40;80.40;101887.05;1718152;83;21137;-82
2021/11/11 04:34:28;;;;;;;42.43;26.73;;;;;;;5.39;80.31;101887.46;1718450;83;21102;-82
2021/11/11 04:49:52;;;;;;;35.45;25.97;;;;;;;5.50;80.54;101888.53;1718088;83;21630;-81
2021/11/11 04:52:21;;;;;;;36.00;24.12;;;;;;;5.52;80.57;101883.93;1714233;83;21034;-81
2021/11/11 05:05:35;;;;;;;37.35;25.12;;;;;;;5.81;80.57;101875.71;1717998;83;21109;-81
2021/11/11 05:08:02;;;;;;;40.10;25.62;;;;;;;5.87;80.58;101872.16;1718002;83;22435;-82
2021/11/11 05:10:28;;;;;;;33.67;24.00;;;;;;;5.92;80.50;101872.47;1717994;83;21046;-82
2021/11/11 05:12:55;;;;;;;41.98;25.02;;;;;;;5.96;80.50;101871.88;1691331;83;21596;-82
2021/11/11 05:15:22;;;;;;;41.80;25.72;;;;;;;6.01;80.45;101870.45;1718223;83;21105;-82
2021/11/11 05:17:49;;;;;;;35.55;25.08;;;;;;;6.01;80.46;101866.12;1717895;83;21355;-83
2021/11/11 05:20:17;;;;;;;43.58;26.25;;;;;;;6.08;80.51;101866.48;1718105;83;21727;-82
2021/11/11 05:22:43;;;;;;;40.63;28.17;;;;;;;6.09;80.30;101861.77;1717883;82;21109;-82
2021/11/11 05:25:11;;;;;;;39.95;28.67;;;;;;;6.07;80.20;101859.47;1718213;83;21041;-83
2021/11/11 05:27:38;;;;;;;38.60;28.35;;;;;;;6.08;80.19;101856.03;1718035;83;21175;-83
2021/11/11 05:30:06;;;;;;;43.80;28.27;;;;;;;6.04;80.09;101847.09;1717780;83;21104;-83
2021/11/11 05:32:33;;;;;;;44.75;29.02;;;;;;;6.07;80.19;101849.91;1717952;83;22626;-82
2021/11/11 05:35:01;;;;;;;44.05;28.32;;;;;;;6.08;80.10;101850.42;1718249;83;21110;-85
2021/11/11 05:37:28;;;;;;;46.53;29.00;;;;;;;6.09;80.14;101846.98;1718344;83;21149;-83
2021/11/11 05:39:55;;;;;;;38.08;28.05;;;;;;;6.10;80.13;101850.11;1718428;83;21066;-85
2021/11/11 05:42:21;;;;;;;39.08;26.80;;;;;;;6.07;80.13;101839.45;1718321;83;21145;-84
2021/11/11 05:44:48;;;;;;;41.42;28.83;;;;;;;6.15;80.17;101851.27;1718536;83;21744;-84
2021/11/11 05:47:16;;;;;;;42.33;29.72;;;;;;;6.18;80.06;101854.08;1718181;83;21066;-84
2021/11/11 05:49:42;;;;;;;46.40;31.40;;;;;;;6.20;80.07;101853.76;1718220;83;21054;-83
2021/11/11 05:52:09;;;;;;;39.58;27.98;;;;;;;6.24;80.08;101852.23;1718236;83;21101;-83
2021/11/11 05:54:38;;;;;;;45.03;30.45;;;;;;;6.27;80.00;101851.13;1717979;83;21018;-85
2021/11/11 05:57:06;;;;;;;43.45;29.57;;;;;;;6.29;79.97;101852.11;1718547;83;21859;-87
2021/11/11 05:59:34;;;;;;;42.48;29.65;;;;;;;6.32;79.96;101850.97;1718795;83;21030;-86
2021/11/11 06:02:01;;;;;;;39.85;29.48;;;;;;;6.33;79.81;101844.05;1718727;83;21070;-87
2021/11/11 06:04:27;;;;;;;41.30;28.80;;;;;;;6.31;79.75;101849.19;1718110;83;21085;-83
2021/11/11 06:06:54;;;;;;;43.55;30.40;;;;;;;6.29;79.68;101839.42;1718062;83;21687;-83
2021/11/11 06:09:21;;;;;;;45.90;30.00;;;;;;;6.27;79.58;101843.66;1718608;83;23083;-85
2021/11/11 06:11:47;;;;;;;41.40;28.85;;;;;;;6.23;79.60;101846.11;1718764;82;21607;-86
2021/11/11 06:14:14;;;;;;;44.20;29.87;;;;;;;6.24;79.59;101850.93;1718732;83;21090;-87
2021/11/11 06:16:42;;;;;;;41.90;29.92;;;;;;;6.22;79.72;101849.94;1718890;83;21058;-89
2021/11/11 06:19:10;;;;;;;41.50;30.45;;;;;;;6.25;79.70;101855.74;1718627;83;21042;-87
2021/11/11 06:21:40;;;;;;;42.20;30.92;;;;;;;6.23;79.62;101858.26;1718600;83;22581;-86
2021/11/11 06:24:07;;;;;;;41.50;29.12;;;;;;;6.20;79.57;101859.41;1718691;83;21061;-86
2021/11/11 06:26:34;;;;;;;43.48;28.90;;;;;;;6.22;79.73;101868.23;1718649;83;21018;-85
2021/11/11 06:29:01;;;;;;;39.42;29.18;;;;;;;6.26;79.72;101875.45;1718752;82;21014;-86
2021/11/11 06:31:27;;;;;;;40.35;28.30;;;;;;;6.31;79.85;101876.64;1721254;83;21619;-85
2021/11/11 06:33:54;;;;;;;41.05;28.35;;;;;;;6.37;79.79;101875.69;1721590;83;22598;-85
2021/11/11 06:36:21;;;;;;;41.70;29.60;;;;;;;6.42;79.68;101878.60;1721303;83;21073;-86
2021/11/11 06:38:48;;;;;;;42.27;28.77;;;;;;;6.47;79.68;101880.17;1721391;83;21599;-84
2021/11/11 06:41:14;;;;;;;41.10;28.32;;;;;;;6.53;79.76;101876.22;1721095;83;21222;-84
2021/11/11 06:43:42;;;;;;;41.02;29.12;;;;;;;6.61;79.67;101874.95;1721194;82;21018;-84
2021/11/11 06:46:09;;;;;;;39.88;28.83;;;;;;;6.68;79.70;101869.69;1721080;83;22060;-83
2021/11/11 06:48:35;;;;;;;43.00;28.70;;;;;;;6.76;79.73;101861.86;1721077;83;21532;-84
2021/11/11 06:51:02;;;;;;;42.53;28.98;;;;;;;6.84;79.54;101867.95;1721122;83;21097;-84
2021/11/11 06:53:29;;;;;;;41.73;27.77;;;;;;;6.86;79.51;101859.78;1721255;83;20999;-84
2021/11/11 06:55:56;;;;;;;39.03;28.30;;;;;;;6.95;79.48;101862.94;1721008;83;21156;-83
2021/11/11 06:58:23;;;;;;;39.25;27.45;;;;;;;7.03;79.39;101865.98;1721151;83;22496;-84
2021/11/11 07:00:55;;;;;;;41.48;28.90;;;;;;;7.11;79.37;101863.39;1720594;83;21588;-84
2021/11/11 07:03:22;;;;;;;39.27;28.17;;;;;;;7.17;79.27;101861.11;1720917;83;21090;-85
2021/11/11 07:05:49;;;;;;;39.42;29.50;;;;;;;7.27;79.36;101859.94;1720883;83;21019;-83
2021/11/11 07:08:16;;;;;;;40.23;28.67;;;;;;;7.37;79.40;101867.06;1720776;83;21093;-83
2021/11/11 07:10:46;;;;;;;43.90;29.25;;;;;;;7.48;79.31;101875.52;1720954;83;22557;-83
2021/11/11 07:13:13;;;;;;;42.58;30.45;;;;;;;7.57;79.25;101872.11;1720669;83;21058;-83
2021/11/11 07:15:41;;;;;;;39.38;29.37;;;;;;;7.68;79.25;101875.33;1721156;82;21595;-83
2021/11/11 07:18:10;;;;;;;38.70;28.60;;;;;;;7.80;79.26;101873.77;1721051;83;21081;-83
2021/11/11 07:20:38;;;;;;;40.95;28.65;;;;;;;7.88;79.08;101879.04;1720719;83;21161;-85
2021/11/11 07:23:04;;;;;;;42.95;29.63;;;;;;;7.91;78.87;101876.56;1721109;83;21812;-84
2021/11/11 07:25:31;;;;;;;45.92;33.50;;;;;;;7.91;78.75;101881.80;1721132;83;21026;-84
2021/11/11 07:27:58;;;;;;;66.12;48.42;;;;;;;7.89;78.69;101877.31;1721330;83;21105;-85
2021/11/11 07:30:25;;;;;;;67.32;45.67;;;;;;;7.89;78.69;101878.20;1721048;83;21074;-84
2021/11/11 07:32:52;;;;;;;90.67;56.65;;;;;;;7.91;78.70;101871.73;1721006;83;21065;-83
2021/11/11 07:35:19;;;;;;;74.50;48.98;;;;;;;7.91;78.66;101871.31;1721049;83;22615;-84
2021/11/11 07:37:49;;;;;;;46.25;32.60;;;;;;;7.96;78.85;101873.78;1718908;83;21072;-85
2021/11/11 07:40:17;;;;;;;45.50;32.65;;;;;;;8.03;78.82;101868.86;1713017;83;21085;-85
2021/11/11 07:42:44;;;;;;;43.92;31.55;;;;;;;8.10;78.86;101869.69;1720974;81;21069;-84
2021/11/11 07:45:11;;;;;;;57.05;38.45;;;;;;;8.20;78.94;101858.84;1714562;83;21105;-83
2021/11/11 07:47:37;;;;;;;53.48;37.73;;;;;;;8.34;78.95;101864.41;1708056;83;22588;-84
2021/11/11 07:50:06;;;;;;;53.35;36.35;;;;;;;8.51;78.93;101856.13;1707939;83;21555;-85
2021/11/11 07:52:32;;;;;;;51.13;36.53;;;;;;;8.63;78.58;101857.15;1707966;82;21033;-84
2021/11/11 07:54:59;;;;;;;50.35;35.98;;;;;;;8.80;78.73;101851.85;1710834;83;21159;-83
2021/11/11 07:57:29;;;;;;;56.55;37.48;;;;;;;9.00;78.76;101850.22;1720884;83;22255;-83
2021/11/11 07:59:56;;;;;;;52.50;36.17;;;;;;;9.28;78.91;101845.47;1707068;83;22593;-81
2021/11/11 08:02:22;;;;;;;44.30;31.55;;;;;;;9.61;78.91;101833.45;1694354;82;21091;-81
2021/11/11 08:04:49;;;;;;;36.95;27.48;;;;;;;9.95;78.79;101836.30;1708382;82;21055;-82
2021/11/11 08:07:17;;;;;;;37.78;27.17;;;;;;;10.18;78.28;101837.30;1708361;83;21184;-81
2021/11/11 08:09:48;;;;;;;37.78;27.85;;;;;;;10.40;77.94;101844.84;1708582;83;21651;-81
2021/11/11 08:12:15;;;;;;;34.00;25.95;;;;;;;10.60;77.83;101849.65;1696920;83;21777;-81
2021/11/11 08:14:42;;;;;;;33.15;26.60;;;;;;;10.79;77.33;101851.32;1657095;85;21037;-81
2021/11/11 08:17:10;;;;;;;34.98;26.27;;;;;;;10.84;76.99;101851.99;1674505;84;21090;-81
2021/11/11 08:19:39;;;;;;;35.55;26.85;;;;;;;10.88;76.59;101851.70;1649460;86;21221;-83
2021/11/11 08:22:06;;;;;;;33.83;25.80;;;;;;;10.89;76.42;101845.62;1651147;85;21135;-82
2021/11/11 08:24:40;;;;;;;35.28;26.50;;;;;;;10.91;76.30;101841.31;1695936;83;21736;-82
2021/11/11 08:27:01;;;;;;;33.70;25.37;;;;;;;10.92;76.04;101841.77;1684483;83;21105;-83
2021/11/11 08:29:28;;;;;;;36.33;28.57;;;;;;;10.88;75.84;101838.53;1677272;85;21101;-81
2021/11/11 08:31:54;;;;;;;36.80;28.38;;;;;;;10.88;75.74;101837.22;1673908;84;21094;-81
2021/11/11 08:34:21;;;;;;;35.33;27.20;;;;;;;10.84;75.59;101838.83;1658970;85;21132;-83
2021/11/11 08:36:48;;;;;;;30.20;25.15;;;;;;;10.85;75.49;101845.91;1667629;84;21765;-83
2021/11/11 08:39:14;;;;;;;35.73;25.75;;;;;;;10.89;75.48;101853.09;1672895;85;22447;-84
2021/11/11 08:41:41;;;;;;;38.50;27.25;;;;;;;10.98;75.50;101847.31;1646689;87;21077;-83
2021/11/11 08:44:09;;;;;;;37.60;27.73;;;;;;;11.10;75.44;101837.68;1646306;85;22305;-82
2021/11/11 08:46:36;;;;;;;34.85;26.70;;;;;;;11.18;75.23;101832.28;1646434;87;21356;-83
2021/11/11 08:49:03;;;;;;;41.92;28.92;;;;;;;11.26;75.14;101829.56;1656589;84;21755;-82
2021/11/11 08:51:34;;;;;;;40.12;29.27;;;;;;;11.34;75.02;101825.91;1675676;85;21109;-86
2021/11/11 08:53:58;;;;;;;40.03;29.07;;;;;;;11.41;74.76;101819.11;1694076;84;21083;-86
2021/11/11 08:56:25;;;;;;;42.78;30.37;;;;;;;11.42;74.67;101820.92;1688028;84;21668;-84
2021/11/11 08:58:51;;;;;;;43.28;31.35;;;;;;;11.40;74.27;101819.97;1700851;84;21040;-83
2021/11/11 09:01:18;;;;;;;47.70;34.30;;;;;;;11.35;74.22;101818.45;1696248;84;21626;-83
2021/11/11 09:03:45;;;;;;;46.80;34.80;;;;;;;11.35;74.28;101817.14;1705034;83;21263;-83
2021/11/11 09:06:12;;;;;;;38.70;28.30;;;;;;;11.34;74.25;101802.17;1696695;84;21079;-84
2021/11/11 09:08:39;;;;;;;36.30;26.30;;;;;;;11.31;74.19;101811.70;1704855;84;21147;-84
2021/11/11 09:11:05;;;;;;;34.50;25.00;;;;;;;11.26;74.12;101811.11;1695802;84;21178;-83
2021/11/11 09:13:32;;;;;;;33.33;24.25;;;;;;;11.25;74.14;101822.47;1697712;84;21744;-84
2021/11/11 09:15:59;;;;;;;29.25;21.52;;;;;;;11.24;74.07;101822.41;1705015;82;21078;-84
2021/11/11 09:18:26;;;;;;;26.25;17.95;;;;;;;11.25;74.17;101823.80;1697193;84;21085;-82
2021/11/11 09:20:53;;;;;;;18.40;14.25;;;;;;;11.33;74.25;101823.20;1705183;84;21137;-92
2021/11/11 09:23:20;;;;;;;18.67;13.98;;;;;;;11.43;74.27;101834.56;1694418;84;21075;-84
2021/11/11 09:25:48;;;;;;;18.92;15.25;;;;;;;11.49;74.03;101837.46;1703418;82;21800;-83
2021/11/11 09:28:15;;;;;;;21.70;15.85;;;;;;;11.51;73.75;101831.83;1713026;83;21533;-82
2021/11/11 09:30:41;;;;;;;21.65;17.50;;;;;;;11.51;73.69;101832.25;1711719;82;21065;-84
2021/11/11 09:33:09;;;;;;;21.77;16.15;;;;;;;11.58;73.91;101835.58;1715117;82;21252;-83
2021/11/11 09:35:36;;;;;;;23.07;19.40;;;;;;;11.66;73.81;101827.56;1708398;83;21096;-83
2021/11/11 09:38:05;;;;;;;26.00;21.95;;;;;;;11.73;73.80;101829.98;1708434;83;21745;-84
2021/11/11 09:40:32;;;;;;;34.33;30.90;;;;;;;11.79;73.72;101822.33;1707962;83;21072;-85
2021/11/11 09:42:59;;;;;;;24.45;19.82;;;;;;;11.83;73.74;101815.89;1733218;82;21078;-82
2021/11/11 09:45:30;;;;;;;19.95;15.88;;;;;;;11.90;73.71;101809.55;1716436;82;22358;-82
2021/11/11 09:47:57;;;;;;;17.87;14.95;;;;;;;11.96;73.49;101809.79;1708804;83;21101;-83
2021/11/11 09:50:26;;;;;;;19.02;12.78;;;;;;;11.97;73.46;101805.86;1681960;84;21764;-84
2021/11/11 09:52:52;;;;;;;17.42;12.80;;;;;;;12.04;73.56;101795.13;1708130;83;21080;-82
2021/11/11 10:00:52;;;;;;;15.65;12.20;;;;;;;12.20;73.36;101780.31;1718402;82;21100;-81
2021/11/11 10:03:19;;;;;;;17.45;13.53;;;;;;;12.21;73.15;101778.12;1712192;83;21750;-82
2021/11/11 10:05:46;;;;;;;17.12;14.38;;;;;;;12.25;73.20;101771.22;1708004;83;21144;-81
2021/11/11 10:08:43;;;;;;;20.15;14.73;;;;;;;12.29;73.09;101770.47;1708081;83;21276;-81
2021/11/11 10:11:32;;;;;;;19.70;14.73;;;;;;;12.31;72.96;101769.20;1708182;83;21088;-82
2021/11/11 10:14:08;;;;;;;19.00;14.03;;;;;;;12.38;73.07;101776.06;1697186;83;21658;-81
2021/11/11 10:16:44;;;;;;;17.82;12.55;;;;;;;12.43;73.00;101775.80;1708951;83;21749;-81
2021/11/11 10:19:11;;;;;;;16.50;12.70;;;;;;;12.51;73.00;101764.61;1710251;83;22069;-82
2021/11/11 10:24:45;;;;;;;18.62;13.83;;;;;;;12.56;72.78;101760.38;1705611;84;22567;-82
2021/11/11 10:27:48;;;;;;;16.32;12.63;;;;;;;12.53;72.65;101758.95;1707589;82;21171;-82
2021/11/11 10:30:23;;;;;;;17.10;13.35;;;;;;;12.49;72.39;101762.34;1695073;83;21859;-82
2021/11/11 10:33:00;;;;;;;18.65;14.63;;;;;;;12.38;72.32;101760.66;1714137;83;21626;-82
2021/11/11 10:35:30;;;;;;;17.32;13.32;;;;;;;12.28;72.33;101763.84;1641692;85;21129;-82
2021/11/11 10:38:01;;;;;;;17.95;14.43;;;;;;;12.24;72.40;101759.77;1654634;85;21323;-83
2021/11/11 10:40:48;;;;;;;20.52;14.10;;;;;;;12.19;72.40;101760.45;1660114;85;21122;-82
2021/11/11 10:43:21;;;;;;;24.15;18.80;;;;;;;12.21;72.71;101746.45;1670558;85;22497;-81
2021/11/11 10:45:50;;;;;;;17.80;14.23;;;;;;;12.29;72.80;101737.47;1648415;85;21128;-82
2021/11/11 10:48:22;;;;;;;16.25;13.13;;;;;;;12.34;72.82;101741.17;1662792;85;21085;-81
2021/11/11 10:50:54;;;;;;;17.77;13.58;;;;;;;12.44;72.86;101741.05;1655970;85;21210;-86
2021/11/11 10:53:27;;;;;;;20.27;14.83;;;;;;;12.54;72.87;101739.20;1676820;84;21128;-82
2021/11/11 10:55:57;;;;;;;20.35;15.23;;;;;;;12.62;72.72;101741.66;1646668;85;21932;-83
2021/11/11 10:58:35;;;;;;;21.37;14.83;;;;;;;12.67;72.58;101745.78;1646420;87;21168;-81
2021/11/11 11:01:11;;;;;;;22.32;15.83;;;;;;;12.70;72.40;101748.94;1638861;87;21183;-81
2021/11/11 11:03:45;;;;;;;16.12;13.75;;;;;;;12.71;72.34;101745.47;1678878;85;21076;-82
2021/11/11 11:06:15;;;;;;;18.70;13.28;;;;;;;12.67;72.16;101739.58;1644649;87;21101;-82
2021/11/11 11:08:45;;;;;;;16.80;13.03;;;;;;;12.62;72.19;101742.09;1661305;84;21420;-81
2021/11/11 11:11:35;;;;;;;17.05;12.73;;;;;;;12.53;72.10;101729.91;1684285;84;21076;-81
2021/11/11 11:14:12;;;;;;;18.60;13.58;;;;;;;12.45;72.26;101730.98;1674385;85;21506;-85
2021/11/11 11:16:39;;;;;;;16.17;12.75;;;;;;;12.45;72.27;101736.26;1679417;85;21069;-86
2021/11/11 11:19:09;;;;;;;20.15;13.60;;;;;;;12.42;72.31;101731.75;1645565;85;21587;-85
2021/11/11 11:21:44;;;;;;;20.65;14.43;;;;;;;12.39;72.32;101728.14;1657006;86;21762;-86
2021/11/11 11:24:26;;;;;;;21.33;14.73;;;;;;;12.43;72.53;101725.64;1656936;86;21102;-84
2021/11/11 11:26:56;;;;;;;22.65;13.98;;;;;;;12.50;72.45;101722.79;1657079;86;21561;-86
2021/11/11 11:29:46;;;;;;;19.15;13.85;;;;;;;12.54;72.33;101725.11;1657174;86;21530;-88
2021/11/11 11:32:19;;;;;;;17.92;13.88;;;;;;;12.53;72.16;101723.30;1651366;85;21090;-85
2021/11/11 11:34:49;;;;;;;17.23;13.22;;;;;;;12.53;72.27;101720.66;1678032;84;21776;-83
2021/11/11 11:37:30;;;;;;;19.57;12.95;;;;;;;12.55;72.21;101714.56;1679109;84;21574;-90
2021/11/11 11:40:11;;;;;;;16.97;13.03;;;;;;;12.55;72.18;101712.36;1673138;83;21048;-85
2021/11/11 11:43:00;;;;;;;17.23;12.93;;;;;;;12.55;72.20;101711.92;1658692;83;21029;-88
2021/11/11 11:45:27;;;;;;;18.02;13.35;;;;;;;12.59;72.24;101710.28;1610550;86;21148;-73
2021/11/11 11:48:01;;;;;;;20.20;14.55;;;;;;;12.63;72.35;101713.09;1589076;88;21858;-74
2021/11/11 11:50:32;;;;;;;23.35;15.13;;;;;;;12.64;72.17;101696.81;1635386;86;21731;-73
2021/11/11 11:53:04;;;;;;;20.00;14.65;;;;;;;12.67;72.11;101696.00;1635063;86;21086;-73